sensor_id;sensor_type;location;lat;lon;timestamp;P1;durP1;ratioP1;P2;durP2;ratioP2
42884;SDS011;28534;48.100;11.584;2023-02-03T00:01:44;0.95;;;0.90;;
42884;SDS011;28534;48.100;11.584;2023-02-03T00:06:46;1.23;;;1.10;;
42884;SDS011;28534;48.100;11.584;2023-02-03T00:11:48;1.05;;;0.93;;
42884;SDS011;28534;48.100;11.584;2023-02-03T00:16:51;0.77;;;0.77;;
42884;SDS011;28534;48.100;11.584;2023-02-03T00:21:52;1.63;;;1.08;;
42884;SDS011;28534;48.100;11.584;2023-02-03T00:26:55;2.58;;;0.90;;
42884;SDS011;28534;48.100;11.584;2023-02-03T00:31:58;1.23;;;1.00;;
42884;SDS011;28534;48.100;11.584;2023-02-03T00:37:00;1.23;;;0.90;;
42884;SDS011;28534;48.100;11.584;2023-02-03T00:42:02;1.77;;;1.05;;
42884;SDS011;28534;48.100;11.584;2023-02-03T00:47:05;1.13;;;0.88;;
42884;SDS011;28534;48.100;11.584;2023-02-03T00:52:07;1.60;;;0.90;;
42884;SDS011;28534;48.100;11.584;2023-02-03T00:57:09;0.90;;;0.88;;
42884;SDS011;28534;48.100;11.584;2023-02-03T01:02:12;1.50;;;1.00;;
42884;SDS011;28534;48.100;11.584;2023-02-03T01:07:15;0.95;;;0.80;;
42884;SDS011;28534;48.100;11.584;2023-02-03T01:12:17;1.33;;;0.90;;
42884;SDS011;28534;48.100;11.584;2023-02-03T01:17:20;1.40;;;1.00;;
42884;SDS011;28534;48.100;11.584;2023-02-03T01:22:22;1.17;;;0.90;;
42884;SDS011;28534;48.100;11.584;2023-02-03T01:27:24;1.05;;;0.70;;
42884;SDS011;28534;48.100;11.584;2023-02-03T01:32:27;0.75;;;0.75;;
42884;SDS011;28534;48.100;11.584;2023-02-03T01:37:29;1.10;;;0.90;;
42884;SDS011;28534;48.100;11.584;2023-02-03T01:42:31;0.93;;;0.90;;
42884;SDS011;28534;48.100;11.584;2023-02-03T01:47:35;1.30;;;1.00;;
42884;SDS011;28534;48.100;11.584;2023-02-03T01:52:43;1.13;;;0.90;;
42884;SDS011;28534;48.100;11.584;2023-02-03T01:57:50;2.03;;;0.88;;
42884;SDS011;28534;48.100;11.584;2023-02-03T02:02:55;0.70;;;0.70;;
42884;SDS011;28534;48.100;11.584;2023-02-03T02:08:01;1.30;;;0.90;;
42884;SDS011;28534;48.100;11.584;2023-02-03T02:13:04;1.10;;;0.90;;
42884;SDS011;28534;48.100;11.584;2023-02-03T02:18:18;0.90;;;0.80;;
42884;SDS011;28534;48.100;11.584;2023-02-03T02:29:09;1.00;;;0.90;;
42884;SDS011;28534;48.100;11.584;2023-02-03T02:34:27;0.80;;;0.80;;
42884;SDS011;28534;48.100;11.584;2023-02-03T02:39:42;1.10;;;0.80;;
42884;SDS011;28534;48.100;11.584;2023-02-03T02:44:49;0.90;;;0.80;;
42884;SDS011;28534;48.100;11.584;2023-02-03T02:49:56;0.90;;;0.77;;
42884;SDS011;28534;48.100;11.584;2023-02-03T02:55:04;0.80;;;0.80;;
42884;SDS011;28534;48.100;11.584;2023-02-03T03:00:13;1.15;;;0.90;;
42884;SDS011;28534;48.100;11.584;2023-02-03T03:05:17;1.25;;;1.05;;
42884;SDS011;28534;48.100;11.584;2023-02-03T03:10:20;0.90;;;0.80;;
42884;SDS011;28534;48.100;11.584;2023-02-03T03:15:26;0.80;;;0.80;;
42884;SDS011;28534;48.100;11.584;2023-02-03T03:20:32;0.70;;;0.70;;
42884;SDS011;28534;48.100;11.584;2023-02-03T03:25:40;1.25;;;0.82;;
42884;SDS011;28534;48.100;11.584;2023-02-03T03:30:46;0.80;;;0.80;;
42884;SDS011;28534;48.100;11.584;2023-02-03T03:35:50;0.93;;;0.82;;
42884;SDS011;28534;48.100;11.584;2023-02-03T03:40:58;0.90;;;0.70;;
42884;SDS011;28534;48.100;11.584;2023-02-03T03:46:05;0.80;;;0.80;;
42884;SDS011;28534;48.100;11.584;2023-02-03T03:51:15;1.10;;;0.88;;
42884;SDS011;28534;48.100;11.584;2023-02-03T03:56:24;0.68;;;0.68;;
42884;SDS011;28534;48.100;11.584;2023-02-03T04:01:30;0.80;;;0.80;;
42884;SDS011;28534;48.100;11.584;2023-02-03T04:06:34;0.65;;;0.60;;
42884;SDS011;28534;48.100;11.584;2023-02-03T04:11:38;0.73;;;0.73;;
42884;SDS011;28534;48.100;11.584;2023-02-03T04:16:57;0.68;;;0.68;;
42884;SDS011;28534;48.100;11.584;2023-02-03T04:22:01;1.02;;;0.70;;
42884;SDS011;28534;48.100;11.584;2023-02-03T04:27:02;0.70;;;0.70;;
42884;SDS011;28534;48.100;11.584;2023-02-03T04:32:04;0.80;;;0.80;;
42884;SDS011;28534;48.100;11.584;2023-02-03T04:37:07;1.17;;;0.75;;
42884;SDS011;28534;48.100;11.584;2023-02-03T04:42:09;1.08;;;0.80;;
42884;SDS011;28534;48.100;11.584;2023-02-03T04:47:11;1.08;;;0.98;;
42884;SDS011;28534;48.100;11.584;2023-02-03T04:52:14;0.93;;;0.70;;
42884;SDS011;28534;48.100;11.584;2023-02-03T04:57:16;0.77;;;0.68;;
42884;SDS011;28534;48.100;11.584;2023-02-03T05:02:18;0.70;;;0.70;;
42884;SDS011;28534;48.100;11.584;2023-02-03T05:07:21;0.60;;;0.60;;
42884;SDS011;28534;48.100;11.584;2023-02-03T05:12:22;2.03;;;0.80;;
42884;SDS011;28534;48.100;11.584;2023-02-03T05:17:24;1.38;;;0.90;;
42884;SDS011;28534;48.100;11.584;2023-02-03T05:22:27;0.93;;;0.82;;
42884;SDS011;28534;48.100;11.584;2023-02-03T05:27:29;0.90;;;0.85;;
42884;SDS011;28534;48.100;11.584;2023-02-03T05:32:31;3.38;;;1.05;;
42884;SDS011;28534;48.100;11.584;2023-02-03T05:37:34;2.55;;;1.20;;
42884;SDS011;28534;48.100;11.584;2023-02-03T05:42:36;2.00;;;1.00;;
42884;SDS011;28534;48.100;11.584;2023-02-03T05:47:37;3.75;;;1.20;;
42884;SDS011;28534;48.100;11.584;2023-02-03T05:52:40;2.10;;;1.10;;
42884;SDS011;28534;48.100;11.584;2023-02-03T05:57:42;5.70;;;1.25;;
42884;SDS011;28534;48.100;11.584;2023-02-03T06:02:44;7.53;;;1.80;;
42884;SDS011;28534;48.100;11.584;2023-02-03T06:07:47;10.43;;;1.98;;
42884;SDS011;28534;48.100;11.584;2023-02-03T06:12:49;10.10;;;1.60;;
42884;SDS011;28534;48.100;11.584;2023-02-03T06:17:51;8.00;;;1.65;;
42884;SDS011;28534;48.100;11.584;2023-02-03T06:22:54;5.47;;;1.70;;
42884;SDS011;28534;48.100;11.584;2023-02-03T06:27:56;8.95;;;1.90;;
42884;SDS011;28534;48.100;11.584;2023-02-03T06:32:58;9.48;;;1.60;;
42884;SDS011;28534;48.100;11.584;2023-02-03T06:38:01;7.72;;;1.65;;
42884;SDS011;28534;48.100;11.584;2023-02-03T06:43:02;5.55;;;1.35;;
42884;SDS011;28534;48.100;11.584;2023-02-03T06:48:05;6.70;;;1.70;;
42884;SDS011;28534;48.100;11.584;2023-02-03T06:53:09;5.32;;;1.30;;
42884;SDS011;28534;48.100;11.584;2023-02-03T06:58:10;4.07;;;1.50;;
42884;SDS011;28534;48.100;11.584;2023-02-03T07:03:12;8.30;;;1.45;;
42884;SDS011;28534;48.100;11.584;2023-02-03T07:08:15;4.72;;;1.20;;
42884;SDS011;28534;48.100;11.584;2023-02-03T07:13:17;3.45;;;1.20;;
42884;SDS011;28534;48.100;11.584;2023-02-03T07:18:19;2.88;;;1.02;;
42884;SDS011;28534;48.100;11.584;2023-02-03T07:23:24;5.88;;;1.42;;
42884;SDS011;28534;48.100;11.584;2023-02-03T07:28:26;7.03;;;1.30;;
42884;SDS011;28534;48.100;11.584;2023-02-03T07:33:28;4.43;;;1.42;;
42884;SDS011;28534;48.100;11.584;2023-02-03T07:38:31;4.95;;;1.50;;
42884;SDS011;28534;48.100;11.584;2023-02-03T07:43:33;7.47;;;1.50;;
42884;SDS011;28534;48.100;11.584;2023-02-03T07:48:35;4.47;;;1.40;;
42884;SDS011;28534;48.100;11.584;2023-02-03T07:53:38;5.35;;;1.30;;
42884;SDS011;28534;48.100;11.584;2023-02-03T07:58:40;9.55;;;1.80;;
42884;SDS011;28534;48.100;11.584;2023-02-03T08:03:41;5.68;;;1.65;;
42884;SDS011;28534;48.100;11.584;2023-02-03T08:08:45;16.00;;;2.50;;
42884;SDS011;28534;48.100;11.584;2023-02-03T08:13:47;9.45;;;2.08;;
42884;SDS011;28534;48.100;11.584;2023-02-03T08:18:48;11.45;;;2.10;;
42884;SDS011;28534;48.100;11.584;2023-02-03T08:23:51;9.25;;;1.98;;
42884;SDS011;28534;48.100;11.584;2023-02-03T08:28:53;11.52;;;2.17;;
42884;SDS011;28534;48.100;11.584;2023-02-03T08:33:55;14.75;;;2.53;;
42884;SDS011;28534;48.100;11.584;2023-02-03T08:38:58;11.05;;;2.20;;
42884;SDS011;28534;48.100;11.584;2023-02-03T08:44:00;10.48;;;2.28;;
42884;SDS011;28534;48.100;11.584;2023-02-03T08:49:02;11.20;;;2.25;;
42884;SDS011;28534;48.100;11.584;2023-02-03T08:54:06;7.85;;;1.88;;
42884;SDS011;28534;48.100;11.584;2023-02-03T08:59:08;9.43;;;2.13;;
42884;SDS011;28534;48.100;11.584;2023-02-03T09:04:10;11.02;;;2.40;;
42884;SDS011;28534;48.100;11.584;2023-02-03T09:09:13;13.48;;;2.63;;
42884;SDS011;28534;48.100;11.584;2023-02-03T09:14:15;20.40;;;2.75;;
42884;SDS011;28534;48.100;11.584;2023-02-03T09:19:17;11.05;;;2.25;;
42884;SDS011;28534;48.100;11.584;2023-02-03T09:24:20;9.98;;;2.42;;
42884;SDS011;28534;48.100;11.584;2023-02-03T09:29:22;10.63;;;2.30;;
42884;SDS011;28534;48.100;11.584;2023-02-03T09:34:23;11.27;;;2.20;;
42884;SDS011;28534;48.100;11.584;2023-02-03T09:39:27;9.23;;;1.90;;
42884;SDS011;28534;48.100;11.584;2023-02-03T09:44:30;8.05;;;2.20;;
42884;SDS011;28534;48.100;11.584;2023-02-03T09:49:37;9.80;;;2.40;;
42884;SDS011;28534;48.100;11.584;2023-02-03T09:54:43;8.02;;;2.33;;
42884;SDS011;28534;48.100;11.584;2023-02-03T09:59:50;6.25;;;2.20;;
42884;SDS011;28534;48.100;11.584;2023-02-03T10:04:56;10.20;;;2.28;;
42884;SDS011;28534;48.100;11.584;2023-02-03T10:10:05;7.53;;;1.90;;
42884;SDS011;28534;48.100;11.584;2023-02-03T10:15:23;6.43;;;1.83;;
42884;SDS011;28534;48.100;11.584;2023-02-03T10:20:42;9.27;;;2.38;;
42884;SDS011;28534;48.100;11.584;2023-02-03T10:25:49;6.85;;;1.85;;
42884;SDS011;28534;48.100;11.584;2023-02-03T10:30:55;6.95;;;1.80;;
42884;SDS011;28534;48.100;11.584;2023-02-03T10:35:59;6.18;;;1.77;;
42884;SDS011;28534;48.100;11.584;2023-02-03T10:41:06;10.90;;;2.05;;
42884;SDS011;28534;48.100;11.584;2023-02-03T10:46:08;4.88;;;1.60;;
42884;SDS011;28534;48.100;11.584;2023-02-03T10:51:11;3.30;;;1.20;;
42884;SDS011;28534;48.100;11.584;2023-02-03T10:56:22;2.17;;;1.00;;
42884;SDS011;28534;48.100;11.584;2023-02-03T11:01:27;1.55;;;0.80;;
42884;SDS011;28534;48.100;11.584;2023-02-03T11:06:40;2.90;;;1.08;;
42884;SDS011;28534;48.100;11.584;2023-02-03T11:12:06;1.98;;;0.93;;
42884;SDS011;28534;48.100;11.584;2023-02-03T11:17:15;1.95;;;0.90;;
42884;SDS011;28534;48.100;11.584;2023-02-03T11:22:25;1.58;;;1.00;;
42884;SDS011;28534;48.100;11.584;2023-02-03T11:27:30;2.55;;;0.98;;
42884;SDS011;28534;48.100;11.584;2023-02-03T11:32:34;2.38;;;0.82;;
42884;SDS011;28534;48.100;11.584;2023-02-03T11:37:38;2.47;;;0.93;;
42884;SDS011;28534;48.100;11.584;2023-02-03T11:42:43;2.30;;;0.85;;
42884;SDS011;28534;48.100;11.584;2023-02-03T11:47:46;2.78;;;0.70;;
42884;SDS011;28534;48.100;11.584;2023-02-03T11:52:55;2.00;;;0.98;;
42884;SDS011;28534;48.100;11.584;2023-02-03T11:58:32;1.10;;;0.65;;
42884;SDS011;28534;48.100;11.584;2023-02-03T12:03:59;0.82;;;0.65;;
42884;SDS011;28534;48.100;11.584;2023-02-03T12:09:37;2.38;;;1.10;;
42884;SDS011;28534;48.100;11.584;2023-02-03T12:14:55;2.03;;;0.80;;
42884;SDS011;28534;48.100;11.584;2023-02-03T12:20:11;3.70;;;0.90;;
42884;SDS011;28534;48.100;11.584;2023-02-03T12:25:28;3.78;;;1.10;;
42884;SDS011;28534;48.100;11.584;2023-02-03T12:30:40;3.83;;;1.70;;
42884;SDS011;28534;48.100;11.584;2023-02-03T12:35:46;5.32;;;1.08;;
42884;SDS011;28534;48.100;11.584;2023-02-03T12:40:53;4.32;;;0.90;;
42884;SDS011;28534;48.100;11.584;2023-02-03T12:46:00;4.43;;;1.13;;
42884;SDS011;28534;48.100;11.584;2023-02-03T12:51:05;5.05;;;1.20;;
42884;SDS011;28534;48.100;11.584;2023-02-03T12:56:12;1.73;;;0.80;;
42884;SDS011;28534;48.100;11.584;2023-02-03T13:01:20;3.28;;;1.13;;
42884;SDS011;28534;48.100;11.584;2023-02-03T13:06:25;3.17;;;1.05;;
42884;SDS011;28534;48.100;11.584;2023-02-03T13:11:32;2.78;;;0.90;;
42884;SDS011;28534;48.100;11.584;2023-02-03T13:16:41;2.80;;;1.00;;
42884;SDS011;28534;48.100;11.584;2023-02-03T13:21:46;3.03;;;1.00;;
42884;SDS011;28534;48.100;11.584;2023-02-03T13:32:31;1.60;;;1.00;;
42884;SDS011;28534;48.100;11.584;2023-02-03T13:37:47;2.33;;;0.95;;
42884;SDS011;28534;48.100;11.584;2023-02-03T13:43:14;3.92;;;0.90;;
42884;SDS011;28534;48.100;11.584;2023-02-03T13:48:21;2.08;;;0.90;;
42884;SDS011;28534;48.100;11.584;2023-02-03T13:53:26;3.55;;;1.00;;
42884;SDS011;28534;48.100;11.584;2023-02-03T13:58:29;1.95;;;0.88;;
42884;SDS011;28534;48.100;11.584;2023-02-03T14:03:43;3.42;;;1.23;;
42884;SDS011;28534;48.100;11.584;2023-02-03T14:08:49;4.75;;;1.10;;
42884;SDS011;28534;48.100;11.584;2023-02-03T14:13:51;5.45;;;1.20;;
42884;SDS011;28534;48.100;11.584;2023-02-03T14:18:56;4.13;;;1.00;;
42884;SDS011;28534;48.100;11.584;2023-02-03T14:23:59;4.03;;;0.90;;
42884;SDS011;28534;48.100;11.584;2023-02-03T14:29:05;5.47;;;1.30;;
42884;SDS011;28534;48.100;11.584;2023-02-03T14:34:09;4.93;;;1.05;;
42884;SDS011;28534;48.100;11.584;2023-02-03T14:45:02;4.57;;;1.27;;
42884;SDS011;28534;48.100;11.584;2023-02-03T14:50:25;2.85;;;1.10;;
42884;SDS011;28534;48.100;11.584;2023-02-03T14:55:38;3.17;;;0.90;;
42884;SDS011;28534;48.100;11.584;2023-02-03T15:00:49;4.25;;;1.30;;
42884;SDS011;28534;48.100;11.584;2023-02-03T15:05:55;4.43;;;1.00;;
42884;SDS011;28534;48.100;11.584;2023-02-03T15:10:59;5.88;;;1.27;;
42884;SDS011;28534;48.100;11.584;2023-02-03T15:16:01;4.43;;;1.00;;
42884;SDS011;28534;48.100;11.584;2023-02-03T15:21:12;3.78;;;1.00;;
42884;SDS011;28534;48.100;11.584;2023-02-03T15:26:17;5.60;;;1.23;;
42884;SDS011;28534;48.100;11.584;2023-02-03T15:31:24;2.80;;;1.10;;
42884;SDS011;28534;48.100;11.584;2023-02-03T15:36:36;4.35;;;0.98;;
42884;SDS011;28534;48.100;11.584;2023-02-03T15:41:42;3.25;;;0.95;;
42884;SDS011;28534;48.100;11.584;2023-02-03T15:46:44;2.85;;;0.90;;
42884;SDS011;28534;48.100;11.584;2023-02-03T15:51:54;3.85;;;1.17;;
42884;SDS011;28534;48.100;11.584;2023-02-03T15:56:59;4.82;;;1.20;;
42884;SDS011;28534;48.100;11.584;2023-02-03T16:02:06;3.42;;;1.38;;
42884;SDS011;28534;48.100;11.584;2023-02-03T16:07:19;3.58;;;1.30;;
42884;SDS011;28534;48.100;11.584;2023-02-03T16:12:23;2.97;;;1.20;;
42884;SDS011;28534;48.100;11.584;2023-02-03T16:17:27;5.82;;;1.25;;
42884;SDS011;28534;48.100;11.584;2023-02-03T16:22:34;5.63;;;1.42;;
42884;SDS011;28534;48.100;11.584;2023-02-03T16:27:37;4.45;;;1.20;;
42884;SDS011;28534;48.100;11.584;2023-02-03T16:32:39;2.78;;;1.25;;
42884;SDS011;28534;48.100;11.584;2023-02-03T16:38:05;5.60;;;1.30;;
42884;SDS011;28534;48.100;11.584;2023-02-03T16:43:25;5.65;;;1.50;;
42884;SDS011;28534;48.100;11.584;2023-02-03T16:48:44;5.07;;;1.23;;
42884;SDS011;28534;48.100;11.584;2023-02-03T16:54:05;7.95;;;1.60;;
42884;SDS011;28534;48.100;11.584;2023-02-03T16:59:09;7.30;;;1.50;;
42884;SDS011;28534;48.100;11.584;2023-02-03T17:04:11;5.93;;;1.60;;
42884;SDS011;28534;48.100;11.584;2023-02-03T17:09:14;7.07;;;1.33;;
42884;SDS011;28534;48.100;11.584;2023-02-03T17:14:21;6.68;;;1.30;;
42884;SDS011;28534;48.100;11.584;2023-02-03T17:19:22;2.75;;;1.10;;
42884;SDS011;28534;48.100;11.584;2023-02-03T17:24:25;3.97;;;1.10;;
42884;SDS011;28534;48.100;11.584;2023-02-03T17:29:27;5.80;;;1.40;;
42884;SDS011;28534;48.100;11.584;2023-02-03T17:34:29;3.13;;;1.33;;
42884;SDS011;28534;48.100;11.584;2023-02-03T17:39:32;8.88;;;1.35;;
42884;SDS011;28534;48.100;11.584;2023-02-03T17:44:34;5.15;;;1.58;;
42884;SDS011;28534;48.100;11.584;2023-02-03T17:49:36;5.07;;;1.58;;
42884;SDS011;28534;48.100;11.584;2023-02-03T17:54:39;7.90;;;1.48;;
42884;SDS011;28534;48.100;11.584;2023-02-03T17:59:40;7.00;;;1.67;;
42884;SDS011;28534;48.100;11.584;2023-02-03T18:04:42;7.50;;;1.75;;
42884;SDS011;28534;48.100;11.584;2023-02-03T18:09:45;7.68;;;1.48;;
42884;SDS011;28534;48.100;11.584;2023-02-03T18:14:47;5.78;;;1.88;;
42884;SDS011;28534;48.100;11.584;2023-02-03T18:19:49;7.78;;;1.73;;
42884;SDS011;28534;48.100;11.584;2023-02-03T18:24:52;5.15;;;2.30;;
42884;SDS011;28534;48.100;11.584;2023-02-03T18:29:54;7.28;;;2.30;;
42884;SDS011;28534;48.100;11.584;2023-02-03T18:34:56;7.60;;;2.10;;
42884;SDS011;28534;48.100;11.584;2023-02-03T18:39:59;4.65;;;1.90;;
42884;SDS011;28534;48.100;11.584;2023-02-03T18:45:01;8.10;;;2.20;;
42884;SDS011;28534;48.100;11.584;2023-02-03T18:50:05;10.13;;;2.30;;
42884;SDS011;28534;48.100;11.584;2023-02-03T18:55:08;7.05;;;2.00;;
42884;SDS011;28534;48.100;11.584;2023-02-03T19:00:12;5.93;;;1.95;;
42884;SDS011;28534;48.100;11.584;2023-02-03T19:05:14;7.38;;;1.83;;
42884;SDS011;28534;48.100;11.584;2023-02-03T19:10:18;5.05;;;1.60;;
42884;SDS011;28534;48.100;11.584;2023-02-03T19:15:20;5.20;;;1.60;;
42884;SDS011;28534;48.100;11.584;2023-02-03T19:20:21;7.10;;;1.80;;
42884;SDS011;28534;48.100;11.584;2023-02-03T19:25:25;6.97;;;1.80;;
42884;SDS011;28534;48.100;11.584;2023-02-03T19:30:26;8.18;;;1.77;;
42884;SDS011;28534;48.100;11.584;2023-02-03T19:35:28;3.67;;;1.40;;
42884;SDS011;28534;48.100;11.584;2023-02-03T19:40:33;4.72;;;1.50;;
42884;SDS011;28534;48.100;11.584;2023-02-03T19:45:35;5.43;;;1.60;;
42884;SDS011;28534;48.100;11.584;2023-02-03T19:50:37;5.38;;;1.30;;
42884;SDS011;28534;48.100;11.584;2023-02-03T19:55:42;5.13;;;1.80;;
42884;SDS011;28534;48.100;11.584;2023-02-03T20:00:44;4.55;;;1.20;;
42884;SDS011;28534;48.100;11.584;2023-02-03T20:05:46;3.33;;;1.25;;
42884;SDS011;28534;48.100;11.584;2023-02-03T20:10:49;3.08;;;1.30;;
42884;SDS011;28534;48.100;11.584;2023-02-03T20:15:51;4.82;;;1.20;;
42884;SDS011;28534;48.100;11.584;2023-02-03T20:20:54;4.68;;;1.40;;
42884;SDS011;28534;48.100;11.584;2023-02-03T20:25:58;2.67;;;1.20;;
42884;SDS011;28534;48.100;11.584;2023-02-03T20:31:00;2.50;;;1.30;;
42884;SDS011;28534;48.100;11.584;2023-02-03T20:36:02;4.95;;;1.33;;
42884;SDS011;28534;48.100;11.584;2023-02-03T20:41:07;3.40;;;1.30;;
42884;SDS011;28534;48.100;11.584;2023-02-03T20:46:09;2.97;;;1.10;;
42884;SDS011;28534;48.100;11.584;2023-02-03T20:51:12;3.45;;;1.17;;
42884;SDS011;28534;48.100;11.584;2023-02-03T20:56:17;4.40;;;1.13;;
42884;SDS011;28534;48.100;11.584;2023-02-03T21:01:21;3.30;;;1.20;;
42884;SDS011;28534;48.100;11.584;2023-02-03T21:06:22;1.98;;;1.13;;
42884;SDS011;28534;48.100;11.584;2023-02-03T21:11:26;2.60;;;1.17;;
42884;SDS011;28534;48.100;11.584;2023-02-03T21:16:32;4.72;;;1.20;;
42884;SDS011;28534;48.100;11.584;2023-02-03T21:21:38;2.47;;;1.00;;
42884;SDS011;28534;48.100;11.584;2023-02-03T21:26:42;3.78;;;1.20;;
42884;SDS011;28534;48.100;11.584;2023-02-03T21:31:44;3.90;;;1.10;;
42884;SDS011;28534;48.100;11.584;2023-02-03T21:36:46;3.08;;;1.17;;
42884;SDS011;28534;48.100;11.584;2023-02-03T21:41:49;4.20;;;1.20;;
42884;SDS011;28534;48.100;11.584;2023-02-03T21:46:51;2.63;;;1.10;;
42884;SDS011;28534;48.100;11.584;2023-02-03T21:51:53;3.55;;;1.10;;
42884;SDS011;28534;48.100;11.584;2023-02-03T21:56:56;2.83;;;1.10;;
42884;SDS011;28534;48.100;11.584;2023-02-03T22:01:58;1.95;;;0.93;;
42884;SDS011;28534;48.100;11.584;2023-02-03T22:07:01;1.77;;;0.95;;
42884;SDS011;28534;48.100;11.584;2023-02-03T22:12:14;2.90;;;1.05;;
42884;SDS011;28534;48.100;11.584;2023-02-03T22:17:16;3.28;;;1.00;;
42884;SDS011;28534;48.100;11.584;2023-02-03T22:22:18;2.17;;;0.95;;
42884;SDS011;28534;48.100;11.584;2023-02-03T22:27:21;1.73;;;0.95;;
42884;SDS011;28534;48.100;11.584;2023-02-03T22:32:24;2.47;;;1.00;;
42884;SDS011;28534;48.100;11.584;2023-02-03T22:37:25;3.28;;;1.27;;
42884;SDS011;28534;48.100;11.584;2023-02-03T22:42:28;2.47;;;0.85;;
42884;SDS011;28534;48.100;11.584;2023-02-03T22:47:30;1.55;;;0.93;;
42884;SDS011;28534;48.100;11.584;2023-02-03T22:52:32;3.25;;;1.05;;
42884;SDS011;28534;48.100;11.584;2023-02-03T22:57:35;2.05;;;1.00;;
42884;SDS011;28534;48.100;11.584;2023-02-03T23:02:39;1.48;;;0.93;;
42884;SDS011;28534;48.100;11.584;2023-02-03T23:07:41;1.55;;;0.80;;
42884;SDS011;28534;48.100;11.584;2023-02-03T23:12:45;2.65;;;0.95;;
42884;SDS011;28534;48.100;11.584;2023-02-03T23:17:46;2.15;;;0.95;;
42884;SDS011;28534;48.100;11.584;2023-02-03T23:22:49;1.60;;;1.00;;
42884;SDS011;28534;48.100;11.584;2023-02-03T23:27:52;1.52;;;0.90;;
42884;SDS011;28534;48.100;11.584;2023-02-03T23:32:54;1.77;;;0.80;;
42884;SDS011;28534;48.100;11.584;2023-02-03T23:37:55;1.50;;;0.80;;
42884;SDS011;28534;48.100;11.584;2023-02-03T23:42:58;2.35;;;0.90;;
42884;SDS011;28534;48.100;11.584;2023-02-03T23:48:00;1.70;;;0.80;;
42884;SDS011;28534;48.100;11.584;2023-02-03T23:53:02;0.95;;;0.70;;
42884;SDS011;28534;48.100;11.584;2023-02-03T23:58:05;1.80;;;0.70;;
